sensor_id;sensor_type;location;lat;lon;timestamp;pressure;altitude;pressure_sealevel;temperature;humidity
13695;BME280;6919;52.344;14.518;2023-12-20T00:01:31;100071.31;;;7.75;100.00
13695;BME280;6919;52.344;14.518;2023-12-20T00:04:02;100068.56;;;7.85;100.00
13695;BME280;6919;52.344;14.518;2023-12-20T00:06:31;100062.22;;;7.68;100.00
13695;BME280;6919;52.344;14.518;2023-12-20T00:09:00;100068.50;;;7.77;100.00
13695;BME280;6919;52.344;14.518;2023-12-20T00:11:29;100061.44;;;7.76;100.00
13695;BME280;6919;52.344;14.518;2023-12-20T00:13:57;100054.94;;;7.88;100.00
13695;BME280;6919;52.344;14.518;2023-12-20T00:16:27;100052.63;;;7.75;100.00
13695;BME280;6919;52.344;14.518;2023-12-20T00:18:56;100054.50;;;7.92;100.00
13695;BME280;6919;52.344;14.518;2023-12-20T00:21:28;100049.75;;;8.04;100.00
13695;BME280;6919;52.344;14.518;2023-12-20T00:23:57;100047.22;;;7.85;100.00
13695;BME280;6919;52.344;14.518;2023-12-20T00:26:26;100050.88;;;7.84;100.00
13695;BME280;6919;52.344;14.518;2023-12-20T00:28:56;100050.44;;;8.06;100.00
13695;BME280;6919;52.344;14.518;2023-12-20T00:31:25;100051.34;;;7.97;100.00
13695;BME280;6919;52.344;14.518;2023-12-20T00:33:54;100049.75;;;8.04;100.00
13695;BME280;6919;52.344;14.518;2023-12-20T00:36:55;100045.41;;;8.03;100.00
13695;BME280;6919;52.344;14.518;2023-12-20T00:39:24;100047.94;;;8.04;100.00
13695;BME280;6919;52.344;14.518;2023-12-20T00:41:52;100048.66;;;7.97;100.00
13695;BME280;6919;52.344;14.518;2023-12-20T00:44:24;100044.63;;;7.75;100.00
13695;BME280;6919;52.344;14.518;2023-12-20T00:46:53;100049.97;;;7.93;100.00
13695;BME280;6919;52.344;14.518;2023-12-20T00:49:22;100038.13;;;7.78;100.00
13695;BME280;6919;52.344;14.518;2023-12-20T00:51:52;100044.19;;;7.97;100.00
13695;BME280;6919;52.344;14.518;2023-12-20T00:54:22;100033.47;;;7.80;100.00
13695;BME280;6919;52.344;14.518;2023-12-20T00:56:52;100039.50;;;7.82;100.00
13695;BME280;6919;52.344;14.518;2023-12-20T00:59:20;100038.41;;;8.02;100.00
13695;BME280;6919;52.344;14.518;2023-12-20T01:01:52;100031.44;;;7.74;100.00
13695;BME280;6919;52.344;14.518;2023-12-20T01:04:23;100026.16;;;7.82;100.00
13695;BME280;6919;52.344;14.518;2023-12-20T01:06:59;100022.53;;;8.00;100.00
13695;BME280;6919;52.344;14.518;2023-12-20T01:09:36;100033.44;;;8.07;100.00
13695;BME280;6919;52.344;14.518;2023-12-20T01:12:08;100029.44;;;7.76;100.00
13695;BME280;6919;52.344;14.518;2023-12-20T01:14:37;100033.09;;;7.75;100.00
13695;BME280;6919;52.344;14.518;2023-12-20T01:17:08;100021.28;;;7.77;100.00
13695;BME280;6919;52.344;14.518;2023-12-20T01:19:37;100037.78;;;7.90;100.00
13695;BME280;6919;52.344;14.518;2023-12-20T01:22:07;100032.66;;;7.97;100.00
13695;BME280;6919;52.344;14.518;2023-12-20T01:24:36;100034.53;;;7.87;100.00
13695;BME280;6919;52.344;14.518;2023-12-20T01:27:05;100034.47;;;7.79;100.00
13695;BME280;6919;52.344;14.518;2023-12-20T01:29:34;100028.75;;;7.91;100.00
13695;BME280;6919;52.344;14.518;2023-12-20T01:32:04;100020.53;;;7.85;100.00
13695;BME280;6919;52.344;14.518;2023-12-20T01:34:33;100020.47;;;7.94;100.00
13695;BME280;6919;52.344;14.518;2023-12-20T01:37:03;100019.84;;;7.83;100.00
13695;BME280;6919;52.344;14.518;2023-12-20T01:39:37;100014.78;;;7.80;100.00
13695;BME280;6919;52.344;14.518;2023-12-20T01:42:06;100009.00;;;7.67;100.00
13695;BME280;6919;52.344;14.518;2023-12-20T01:44:34;100005.47;;;7.66;100.00
13695;BME280;6919;52.344;14.518;2023-12-20T01:47:03;100005.53;;;7.84;100.00
13695;BME280;6919;52.344;14.518;2023-12-20T01:49:32;100004.22;;;7.88;100.00
13695;BME280;6919;52.344;14.518;2023-12-20T01:52:02;100015.88;;;7.87;100.00
13695;BME280;6919;52.344;14.518;2023-12-20T01:54:32;100008.28;;;7.65;100.00
13695;BME280;6919;52.344;14.518;2023-12-20T01:57:04;100013.72;;;7.73;100.00
13695;BME280;6919;52.344;14.518;2023-12-20T01:59:34;99997.88;;;7.71;100.00
13695;BME280;6919;52.344;14.518;2023-12-20T02:02:04;100007.25;;;7.75;100.00
13695;BME280;6919;52.344;14.518;2023-12-20T02:04:37;100009.00;;;7.67;100.00
13695;BME280;6919;52.344;14.518;2023-12-20T02:07:18;99997.69;;;7.55;100.00
13695;BME280;6919;52.344;14.518;2023-12-20T02:09:47;99999.00;;;7.69;100.00
13695;BME280;6919;52.344;14.518;2023-12-20T02:12:18;99999.19;;;7.85;100.00
13695;BME280;6919;52.344;14.518;2023-12-20T02:14:49;99998.47;;;7.83;100.00
13695;BME280;6919;52.344;14.518;2023-12-20T02:17:20;99986.84;;;7.84;100.00
13695;BME280;6919;52.344;14.518;2023-12-20T02:19:49;99983.84;;;7.87;100.00
13695;BME280;6919;52.344;14.518;2023-12-20T02:22:22;99992.31;;;8.00;100.00
13695;BME280;6919;52.344;14.518;2023-12-20T02:25:03;99991.94;;;7.95;100.00
13695;BME280;6919;52.344;14.518;2023-12-20T02:27:32;99987.28;;;7.79;100.00
13695;BME280;6919;52.344;14.518;2023-12-20T02:30:00;99984.06;;;7.58;100.00
13695;BME280;6919;52.344;14.518;2023-12-20T02:32:30;99988.94;;;7.63;100.00
13695;BME280;6919;52.344;14.518;2023-12-20T02:34:59;99987.44;;;7.78;100.00
13695;BME280;6919;52.344;14.518;2023-12-20T02:37:30;99990.78;;;7.80;100.00
13695;BME280;6919;52.344;14.518;2023-12-20T02:39:59;99988.97;;;7.80;100.00
13695;BME280;6919;52.344;14.518;2023-12-20T02:42:28;99994.38;;;7.71;100.00
13695;BME280;6919;52.344;14.518;2023-12-20T02:44:57;99988.44;;;7.77;100.00
13695;BME280;6919;52.344;14.518;2023-12-20T02:47:25;99980.81;;;7.82;100.00
13695;BME280;6919;52.344;14.518;2023-12-20T02:49:54;99983.75;;;7.79;100.00
13695;BME280;6919;52.344;14.518;2023-12-20T02:52:24;99982.03;;;7.87;100.00
13695;BME280;6919;52.344;14.518;2023-12-20T02:54:54;99988.44;;;7.77;100.00
13695;BME280;6919;52.344;14.518;2023-12-20T02:57:23;99990.78;;;7.62;100.00
13695;BME280;6919;52.344;14.518;2023-12-20T02:59:51;99980.03;;;7.72;100.00
13695;BME280;6919;52.344;14.518;2023-12-20T03:02:20;99981.09;;;7.79;100.00
13695;BME280;6919;52.344;14.518;2023-12-20T03:04:49;99983.69;;;7.71;100.00
13695;BME280;6919;52.344;14.518;2023-12-20T03:07:18;99987.22;;;7.71;100.00
13695;BME280;6919;52.344;14.518;2023-12-20T03:10:06;99979.56;;;7.94;100.00
13695;BME280;6919;52.344;14.518;2023-12-20T03:12:46;99977.91;;;8.10;100.00
13695;BME280;6919;52.344;14.518;2023-12-20T03:15:17;99977.38;;;7.89;100.00
13695;BME280;6919;52.344;14.518;2023-12-20T03:17:49;99981.72;;;7.90;100.00
13695;BME280;6919;52.344;14.518;2023-12-20T03:20:20;99982.75;;;7.80;100.00
13695;BME280;6919;52.344;14.518;2023-12-20T03:22:50;99985.69;;;8.04;100.00
13695;BME280;6919;52.344;14.518;2023-12-20T03:25:22;99989.88;;;8.06;100.00
13695;BME280;6919;52.344;14.518;2023-12-20T03:27:51;99980.97;;;7.98;100.00
13695;BME280;6919;52.344;14.518;2023-12-20T03:30:25;99988.22;;;7.88;100.00
13695;BME280;6919;52.344;14.518;2023-12-20T03:32:54;99976.34;;;7.73;100.00
13695;BME280;6919;52.344;14.518;2023-12-20T03:35:23;99976.06;;;7.76;100.00
13695;BME280;6919;52.344;14.518;2023-12-20T03:37:57;99988.75;;;8.09;100.00
13695;BME280;6919;52.344;14.518;2023-12-20T03:41:04;99996.09;;;8.24;100.00
13695;BME280;6919;52.344;14.518;2023-12-20T03:43:55;99994.00;;;8.18;100.00
13695;BME280;6919;52.344;14.518;2023-12-20T03:46:51;99987.81;;;7.83;100.00
13695;BME280;6919;52.344;14.518;2023-12-20T03:49:20;99990.66;;;7.99;100.00
13695;BME280;6919;52.344;14.518;2023-12-20T03:52:24;99990.78;;;7.97;100.00
13695;BME280;6919;52.344;14.518;2023-12-20T03:54:53;99989.88;;;7.89;100.00
13695;BME280;6919;52.344;14.518;2023-12-20T03:57:58;100003.28;;;7.97;100.00
13695;BME280;6919;52.344;14.518;2023-12-20T04:00:28;99997.13;;;8.14;100.00
13695;BME280;6919;52.344;14.518;2023-12-20T04:03:16;100000.28;;;8.27;100.00
13695;BME280;6919;52.344;14.518;2023-12-20T04:06:10;99988.91;;;8.25;100.00
13695;BME280;6919;52.344;14.518;2023-12-20T04:09:00;99996.59;;;8.28;100.00
13695;BME280;6919;52.344;14.518;2023-12-20T04:12:05;99990.63;;;8.51;100.00
13695;BME280;6919;52.344;14.518;2023-12-20T04:14:42;100000.34;;;8.17;100.00
13695;BME280;6919;52.344;14.518;2023-12-20T04:17:22;99998.41;;;8.45;100.00
13695;BME280;6919;52.344;14.518;2023-12-20T04:19:51;99993.53;;;8.40;100.00
13695;BME280;6919;52.344;14.518;2023-12-20T04:22:20;99996.25;;;8.23;100.00
13695;BME280;6919;52.344;14.518;2023-12-20T04:24:49;99987.66;;;8.19;100.00
13695;BME280;6919;52.344;14.518;2023-12-20T04:27:17;99985.31;;;8.34;100.00
13695;BME280;6919;52.344;14.518;2023-12-20T04:29:47;99990.31;;;8.19;100.00
13695;BME280;6919;52.344;14.518;2023-12-20T04:32:16;99990.34;;;8.02;100.00
13695;BME280;6919;52.344;14.518;2023-12-20T04:34:44;99981.34;;;7.85;100.00
13695;BME280;6919;52.344;14.518;2023-12-20T04:37:13;99985.38;;;7.72;100.00
13695;BME280;6919;52.344;14.518;2023-12-20T04:39:41;99982.63;;;7.99;100.00
13695;BME280;6919;52.344;14.518;2023-12-20T04:42:10;99983.78;;;7.96;100.00
13695;BME280;6919;52.344;14.518;2023-12-20T04:44:38;99982.25;;;8.29;100.00
13695;BME280;6919;52.344;14.518;2023-12-20T04:47:08;99989.59;;;8.27;100.00
13695;BME280;6919;52.344;14.518;2023-12-20T04:49:37;99986.75;;;8.11;100.00
13695;BME280;6919;52.344;14.518;2023-12-20T04:52:06;99975.75;;;8.14;100.00
13695;BME280;6919;52.344;14.518;2023-12-20T04:54:34;99967.03;;;8.21;100.00
13695;BME280;6919;52.344;14.518;2023-12-20T04:57:03;99980.34;;;8.04;100.00
13695;BME280;6919;52.344;14.518;2023-12-20T04:59:32;99977.75;;;8.12;100.00
13695;BME280;6919;52.344;14.518;2023-12-20T05:02:00;99972.22;;;8.23;100.00
13695;BME280;6919;52.344;14.518;2023-12-20T05:04:30;99977.78;;;8.55;100.00
13695;BME280;6919;52.344;14.518;2023-12-20T05:06:59;99967.03;;;8.47;100.00
13695;BME280;6919;52.344;14.518;2023-12-20T05:09:28;99974.47;;;8.61;100.00
13695;BME280;6919;52.344;14.518;2023-12-20T05:11:56;99962.66;;;8.63;100.00
13695;BME280;6919;52.344;14.518;2023-12-20T05:14:25;99961.38;;;8.24;100.00
13695;BME280;6919;52.344;14.518;2023-12-20T05:16:54;99970.81;;;8.36;100.00
13695;BME280;6919;52.344;14.518;2023-12-20T05:19:23;99964.88;;;8.25;100.00
13695;BME280;6919;52.344;14.518;2023-12-20T05:21:54;99951.34;;;8.44;100.00
13695;BME280;6919;52.344;14.518;2023-12-20T05:24:22;99957.63;;;8.00;100.00
13695;BME280;6919;52.344;14.518;2023-12-20T05:26:51;99953.72;;;8.29;100.00
13695;BME280;6919;52.344;14.518;2023-12-20T05:29:20;99956.19;;;8.23;100.00
13695;BME280;6919;52.344;14.518;2023-12-20T05:31:49;99956.91;;;8.15;100.00
13695;BME280;6919;52.344;14.518;2023-12-20T05:34:17;99959.75;;;8.14;100.00
13695;BME280;6919;52.344;14.518;2023-12-20T05:36:46;99951.75;;;7.96;100.00
13695;BME280;6919;52.344;14.518;2023-12-20T05:39:16;99952.44;;;7.81;100.00
13695;BME280;6919;52.344;14.518;2023-12-20T05:41:45;99961.41;;;7.80;100.00
13695;BME280;6919;52.344;14.518;2023-12-20T05:44:14;99960.97;;;7.67;100.00
13695;BME280;6919;52.344;14.518;2023-12-20T05:46:44;99957.31;;;7.68;100.00
13695;BME280;6919;52.344;14.518;2023-12-20T05:49:12;99955.63;;;7.67;100.00
13695;BME280;6919;52.344;14.518;2023-12-20T05:51:41;99954.41;;;7.61;100.00
13695;BME280;6919;52.344;14.518;2023-12-20T05:54:10;99958.16;;;7.68;100.00
13695;BME280;6919;52.344;14.518;2023-12-20T05:56:40;99965.88;;;7.71;100.00
13695;BME280;6919;52.344;14.518;2023-12-20T05:59:08;99962.25;;;7.80;100.00
13695;BME280;6919;52.344;14.518;2023-12-20T06:01:37;99974.47;;;8.00;100.00
13695;BME280;6919;52.344;14.518;2023-12-20T06:04:05;99968.84;;;7.68;100.00
13695;BME280;6919;52.344;14.518;2023-12-20T06:06:34;99964.47;;;7.67;100.00
13695;BME280;6919;52.344;14.518;2023-12-20T06:09:08;99971.13;;;7.81;100.00
13695;BME280;6919;52.344;14.518;2023-12-20T06:11:38;99968.91;;;7.59;100.00
13695;BME280;6919;52.344;14.518;2023-12-20T06:14:07;99980.97;;;7.98;100.00
13695;BME280;6919;52.344;14.518;2023-12-20T06:16:35;99975.13;;;7.67;100.00
13695;BME280;6919;52.344;14.518;2023-12-20T06:19:04;99975.47;;;7.64;100.00
13695;BME280;6919;52.344;14.518;2023-12-20T06:21:33;99974.38;;;7.57;100.00
13695;BME280;6919;52.344;14.518;2023-12-20T06:24:02;99978.66;;;7.68;100.00
13695;BME280;6919;52.344;14.518;2023-12-20T06:26:31;99971.50;;;7.86;100.00
13695;BME280;6919;52.344;14.518;2023-12-20T06:29:01;99971.72;;;7.75;100.00
13695;BME280;6919;52.344;14.518;2023-12-20T06:31:30;99974.47;;;7.83;100.00
13695;BME280;6919;52.344;14.518;2023-12-20T06:34:00;99966.81;;;7.53;100.00
13695;BME280;6919;52.344;14.518;2023-12-20T06:36:29;99972.38;;;7.59;100.00
13695;BME280;6919;52.344;14.518;2023-12-20T06:38:57;99971.56;;;7.94;100.00
13695;BME280;6919;52.344;14.518;2023-12-20T06:41:26;99964.94;;;7.63;100.00
13695;BME280;6919;52.344;14.518;2023-12-20T06:43:55;99961.31;;;7.37;100.00
13695;BME280;6919;52.344;14.518;2023-12-20T06:46:25;99956.38;;;7.42;100.00
13695;BME280;6919;52.344;14.518;2023-12-20T06:48:54;99961.88;;;7.58;100.00
13695;BME280;6919;52.344;14.518;2023-12-20T06:51:22;99969.44;;;7.62;100.00
13695;BME280;6919;52.344;14.518;2023-12-20T06:53:52;99966.03;;;7.25;100.00
13695;BME280;6919;52.344;14.518;2023-12-20T06:56:21;99970.44;;;7.34;100.00
13695;BME280;6919;52.344;14.518;2023-12-20T06:58:50;99965.00;;;6.99;100.00
13695;BME280;6919;52.344;14.518;2023-12-20T07:01:18;99965.00;;;6.99;100.00
13695;BME280;6919;52.344;14.518;2023-12-20T07:03:48;99977.31;;;7.10;100.00
13695;BME280;6919;52.344;14.518;2023-12-20T07:06:17;99983.75;;;7.17;100.00
13695;BME280;6919;52.344;14.518;2023-12-20T07:08:46;99982.03;;;7.16;100.00
13695;BME280;6919;52.344;14.518;2023-12-20T07:11:15;99976.41;;;7.19;100.00
13695;BME280;6919;52.344;14.518;2023-12-20T07:13:43;99976.09;;;7.04;100.00
13695;BME280;6919;52.344;14.518;2023-12-20T07:16:13;99972.75;;;7.20;100.00
13695;BME280;6919;52.344;14.518;2023-12-20T07:18:41;99973.38;;;7.14;100.00
13695;BME280;6919;52.344;14.518;2023-12-20T07:21:11;99973.81;;;7.09;100.00
13695;BME280;6919;52.344;14.518;2023-12-20T07:23:40;99974.31;;;6.86;100.00
13695;BME280;6919;52.344;14.518;2023-12-20T07:26:09;99975.09;;;7.05;100.00
13695;BME280;6919;52.344;14.518;2023-12-20T07:28:38;99982.38;;;7.03;100.00
13695;BME280;6919;52.344;14.518;2023-12-20T07:31:08;99973.59;;;7.20;100.00
13695;BME280;6919;52.344;14.518;2023-12-20T07:33:36;99978.44;;;7.07;100.00
13695;BME280;6919;52.344;14.518;2023-12-20T07:36:07;99972.59;;;7.21;100.00
13695;BME280;6919;52.344;14.518;2023-12-20T07:38:37;99966.09;;;7.06;100.00
13695;BME280;6919;52.344;14.518;2023-12-20T07:41:05;99963.19;;;7.27;100.00
13695;BME280;6919;52.344;14.518;2023-12-20T07:43:34;99971.88;;;7.29;100.00
13695;BME280;6919;52.344;14.518;2023-12-20T07:46:06;99961.16;;;7.38;100.00
13695;BME280;6919;52.344;14.518;2023-12-20T07:48:35;99966.16;;;7.24;100.00
13695;BME280;6919;52.344;14.518;2023-12-20T07:51:04;99962.06;;;7.02;100.00
13695;BME280;6919;52.344;14.518;2023-12-20T07:53:36;99957.19;;;7.42;100.00
13695;BME280;6919;52.344;14.518;2023-12-20T07:56:14;99955.03;;;7.28;100.00
13695;BME280;6919;52.344;14.518;2023-12-20T07:58:43;99963.59;;;7.49;100.00
13695;BME280;6919;52.344;14.518;2023-12-20T08:01:20;99961.63;;;7.51;100.00
13695;BME280;6919;52.344;14.518;2023-12-20T08:03:49;99964.91;;;7.45;100.00
13695;BME280;6919;52.344;14.518;2023-12-20T08:06:19;99964.00;;;7.72;100.00
13695;BME280;6919;52.344;14.518;2023-12-20T08:08:49;99972.66;;;7.39;100.00
13695;BME280;6919;52.344;14.518;2023-12-20T08:11:28;99973.59;;;7.47;100.00
13695;BME280;6919;52.344;14.518;2023-12-20T08:13:57;99977.59;;;7.34;100.00
13695;BME280;6919;52.344;14.518;2023-12-20T08:16:25;99968.63;;;7.35;100.00
13695;BME280;6919;52.344;14.518;2023-12-20T08:18:54;99978.69;;;7.14;100.00
13695;BME280;6919;52.344;14.518;2023-12-20T08:21:23;99972.75;;;7.20;100.00
13695;BME280;6919;52.344;14.518;2023-12-20T08:23:53;99964.19;;;7.26;100.00
13695;BME280;6919;52.344;14.518;2023-12-20T08:26:22;99975.31;;;7.12;100.00
13695;BME280;6919;52.344;14.518;2023-12-20T08:28:51;99960.22;;;7.03;100.00
13695;BME280;6919;52.344;14.518;2023-12-20T08:31:20;99967.41;;;7.20;100.00
13695;BME280;6919;52.344;14.518;2023-12-20T08:33:50;99961.72;;;7.15;100.00
13695;BME280;6919;52.344;14.518;2023-12-20T08:36:20;99951.97;;;7.23;100.00
13695;BME280;6919;52.344;14.518;2023-12-20T08:38:52;99947.34;;;6.98;100.00
13695;BME280;6919;52.344;14.518;2023-12-20T08:41:20;99943.13;;;7.23;100.00
13695;BME280;6919;52.344;14.518;2023-12-20T08:43:49;99942.53;;;7.11;100.00
13695;BME280;6919;52.344;14.518;2023-12-20T08:46:18;99941.47;;;7.22;100.00
13695;BME280;6919;52.344;14.518;2023-12-20T08:48:46;99941.09;;;7.17;100.00
13695;BME280;6919;52.344;14.518;2023-12-20T08:51:15;99939.88;;;7.29;100.00
13695;BME280;6919;52.344;14.518;2023-12-20T08:53:44;99939.94;;;7.19;100.00
13695;BME280;6919;52.344;14.518;2023-12-20T08:56:16;99950.09;;;7.33;100.00
13695;BME280;6919;52.344;14.518;2023-12-20T08:58:45;99940.81;;;7.10;100.00
13695;BME280;6919;52.344;14.518;2023-12-20T09:01:14;99935.97;;;7.06;100.00
13695;BME280;6919;52.344;14.518;2023-12-20T09:03:43;99945.81;;;7.23;100.00
13695;BME280;6919;52.344;14.518;2023-12-20T09:06:11;99946.41;;;7.17;100.00
13695;BME280;6919;52.344;14.518;2023-12-20T09:08:40;99930.41;;;7.17;100.00
13695;BME280;6919;52.344;14.518;2023-12-20T09:11:09;99946.00;;;7.12;100.00
13695;BME280;6919;52.344;14.518;2023-12-20T09:13:39;99935.34;;;7.12;100.00
13695;BME280;6919;52.344;14.518;2023-12-20T09:16:08;99932.63;;;7.21;100.00
13695;BME280;6919;52.344;14.518;2023-12-20T09:18:37;99933.69;;;7.28;100.00
13695;BME280;6919;52.344;14.518;2023-12-20T09:21:05;99936.50;;;7.27;100.00
13695;BME280;6919;52.344;14.518;2023-12-20T09:23:34;99957.81;;;7.09;100.00
13695;BME280;6919;52.344;14.518;2023-12-20T09:26:04;99942.88;;;6.99;100.00
13695;BME280;6919;52.344;14.518;2023-12-20T09:28:32;99946.94;;;7.20;100.00
13695;BME280;6919;52.344;14.518;2023-12-20T09:31:06;99933.81;;;7.09;100.00
13695;BME280;6919;52.344;14.518;2023-12-20T09:33:35;99926.53;;;7.11;100.00
13695;BME280;6919;52.344;14.518;2023-12-20T09:36:04;99931.13;;;6.92;100.00
13695;BME280;6919;52.344;14.518;2023-12-20T09:38:32;99928.25;;;7.03;100.00
13695;BME280;6919;52.344;14.518;2023-12-20T09:41:02;99926.16;;;7.24;100.00
13695;BME280;6919;52.344;14.518;2023-12-20T09:43:32;99907.69;;;7.13;100.00
13695;BME280;6919;52.344;14.518;2023-12-20T09:46:07;99908.44;;;7.32;100.00
13695;BME280;6919;52.344;14.518;2023-12-20T09:48:39;99898.38;;;7.26;100.00
13695;BME280;6919;52.344;14.518;2023-12-20T09:51:08;99898.59;;;7.33;100.00
13695;BME280;6919;52.344;14.518;2023-12-20T09:53:37;99897.78;;;7.32;100.00
13695;BME280;6919;52.344;14.518;2023-12-20T09:56:07;99877.63;;;7.20;100.00
13695;BME280;6919;52.344;14.518;2023-12-20T09:58:37;99880.38;;;7.28;100.00
13695;BME280;6919;52.344;14.518;2023-12-20T10:01:08;99891.88;;;7.29;100.00
13695;BME280;6919;52.344;14.518;2023-12-20T10:03:40;99888.03;;;7.58;100.00
13695;BME280;6919;52.344;14.518;2023-12-20T10:06:09;99893.19;;;7.42;100.00
13695;BME280;6919;52.344;14.518;2023-12-20T10:08:39;99895.72;;;7.61;100.00
13695;BME280;6919;52.344;14.518;2023-12-20T10:11:07;99884.81;;;7.72;100.00
13695;BME280;6919;52.344;14.518;2023-12-20T10:13:39;99877.94;;;7.52;100.00
13695;BME280;6919;52.344;14.518;2023-12-20T10:16:10;99866.47;;;7.52;100.00
13695;BME280;6919;52.344;14.518;2023-12-20T10:18:39;99868.25;;;7.34;100.00
13695;BME280;6919;52.344;14.518;2023-12-20T10:21:08;99866.66;;;7.41;100.00
13695;BME280;6919;52.344;14.518;2023-12-20T10:23:40;99856.63;;;7.35;100.00
13695;BME280;6919;52.344;14.518;2023-12-20T10:26:10;99867.13;;;7.54;100.00
13695;BME280;6919;52.344;14.518;2023-12-20T10:28:51;99872.19;;;7.39;100.00
13695;BME280;6919;52.344;14.518;2023-12-20T10:31:31;99862.50;;;7.56;100.00
13695;BME280;6919;52.344;14.518;2023-12-20T10:34:04;99858.22;;;7.63;100.00
13695;BME280;6919;52.344;14.518;2023-12-20T10:36:44;99862.81;;;7.53;100.00
13695;BME280;6919;52.344;14.518;2023-12-20T10:39:15;99845.50;;;7.39;100.00
13695;BME280;6919;52.344;14.518;2023-12-20T10:41:44;99845.56;;;7.30;100.00
13695;BME280;6919;52.344;14.518;2023-12-20T10:44:14;99839.03;;;7.42;100.00
13695;BME280;6919;52.344;14.518;2023-12-20T10:46:45;99827.22;;;7.44;100.00
13695;BME280;6919;52.344;14.518;2023-12-20T10:49:19;99825.16;;;7.56;100.00
13695;BME280;6919;52.344;14.518;2023-12-20T10:51:48;99819.00;;;7.81;100.00
13695;BME280;6919;52.344;14.518;2023-12-20T10:54:17;99817.75;;;7.50;100.00
13695;BME280;6919;52.344;14.518;2023-12-20T10:56:46;99818.75;;;7.49;100.00
13695;BME280;6919;52.344;14.518;2023-12-20T10:59:16;99834.66;;;7.58;100.00
13695;BME280;6919;52.344;14.518;2023-12-20T11:01:51;99834.13;;;7.55;100.00
13695;BME280;6919;52.344;14.518;2023-12-20T11:04:25;99822.09;;;7.51;100.00
13695;BME280;6919;52.344;14.518;2023-12-20T11:07:11;99805.72;;;7.46;100.00
13695;BME280;6919;52.344;14.518;2023-12-20T11:09:51;99812.22;;;7.69;100.00
13695;BME280;6919;52.344;14.518;2023-12-20T11:12:31;99797.03;;;7.61;100.00
13695;BME280;6919;52.344;14.518;2023-12-20T11:15:01;99798.28;;;7.75;100.00
13695;BME280;6919;52.344;14.518;2023-12-20T11:17:33;99797.13;;;7.52;100.00
13695;BME280;6919;52.344;14.518;2023-12-20T11:20:07;99798.19;;;7.59;100.00
13695;BME280;6919;52.344;14.518;2023-12-20T11:22:38;99781.00;;;7.61;100.00
13695;BME280;6919;52.344;14.518;2023-12-20T11:25:11;99784.03;;;7.66;100.00
13695;BME280;6919;52.344;14.518;2023-12-20T11:27:42;99783.53;;;7.63;100.00
13695;BME280;6919;52.344;14.518;2023-12-20T11:30:14;99772.13;;;7.78;100.00
13695;BME280;6919;52.344;14.518;2023-12-20T11:32:46;99775.47;;;7.80;100.00
13695;BME280;6919;52.344;14.518;2023-12-20T11:35:19;99764.63;;;7.82;100.00
13695;BME280;6919;52.344;14.518;2023-12-20T11:37:49;99761.03;;;7.91;100.00
13695;BME280;6919;52.344;14.518;2023-12-20T11:40:19;99761.03;;;7.91;100.00
13695;BME280;6919;52.344;14.518;2023-12-20T11:42:50;99758.59;;;7.80;100.00
13695;BME280;6919;52.344;14.518;2023-12-20T11:45:21;99751.41;;;7.98;100.00
13695;BME280;6919;52.344;14.518;2023-12-20T11:47:52;99743.63;;;7.87;100.00
13695;BME280;6919;52.344;14.518;2023-12-20T11:50:22;99736.72;;;7.68;100.00
13695;BME280;6919;52.344;14.518;2023-12-20T11:52:52;99750.78;;;7.78;100.00
13695;BME280;6919;52.344;14.518;2023-12-20T11:55:22;99736.28;;;7.81;100.00
13695;BME280;6919;52.344;14.518;2023-12-20T11:57:52;99730.72;;;7.74;100.00
13695;BME280;6919;52.344;14.518;2023-12-20T12:00:21;99731.25;;;7.78;100.00
13695;BME280;6919;52.344;14.518;2023-12-20T12:02:58;99724.31;;;7.85;100.00
13695;BME280;6919;52.344;14.518;2023-12-20T12:05:27;99717.81;;;7.87;100.00
13695;BME280;6919;52.344;14.518;2023-12-20T12:07:56;99724.88;;;7.96;100.00
13695;BME280;6919;52.344;14.518;2023-12-20T12:10:24;99703.25;;;7.82;100.00
13695;BME280;6919;52.344;14.518;2023-12-20T12:12:53;99693.31;;;7.92;100.00
13695;BME280;6919;52.344;14.518;2023-12-20T12:15:23;99678.78;;;7.86;100.00
13695;BME280;6919;52.344;14.518;2023-12-20T12:17:53;99693.16;;;7.93;100.00
13695;BME280;6919;52.344;14.518;2023-12-20T12:20:25;99692.59;;;7.82;100.00
13695;BME280;6919;52.344;14.518;2023-12-20T12:23:00;99685.66;;;7.97;100.00
13695;BME280;6919;52.344;14.518;2023-12-20T12:25:29;99682.69;;;8.08;100.00
13695;BME280;6919;52.344;14.518;2023-12-20T12:27:59;99679.25;;;7.82;100.00
13695;BME280;6919;52.344;14.518;2023-12-20T12:30:28;99664.09;;;7.82;100.00
13695;BME280;6919;52.344;14.518;2023-12-20T12:33:05;99658.47;;;7.93;100.00
13695;BME280;6919;52.344;14.518;2023-12-20T12:35:36;99661.91;;;7.86;100.00
13695;BME280;6919;52.344;14.518;2023-12-20T12:38:06;99647.22;;;7.82;100.00
13695;BME280;6919;52.344;14.518;2023-12-20T12:40:36;99639.63;;;7.95;100.00
13695;BME280;6919;52.344;14.518;2023-12-20T12:43:04;99638.78;;;7.94;100.00
13695;BME280;6919;52.344;14.518;2023-12-20T12:45:34;99617.41;;;7.94;100.00
13695;BME280;6919;52.344;14.518;2023-12-20T12:48:03;99621.59;;;7.97;100.00
13695;BME280;6919;52.344;14.518;2023-12-20T12:50:32;99618.19;;;7.79;100.00
13695;BME280;6919;52.344;14.518;2023-12-20T12:53:03;99614.88;;;7.85;100.00
13695;BME280;6919;52.344;14.518;2023-12-20T12:55:31;99617.09;;;7.97;100.00
13695;BME280;6919;52.344;14.518;2023-12-20T12:58:00;99610.88;;;7.81;100.00
13695;BME280;6919;52.344;14.518;2023-12-20T13:00:32;99595.34;;;7.84;100.00
13695;BME280;6919;52.344;14.518;2023-12-20T13:03:01;99591.06;;;7.91;100.00
13695;BME280;6919;52.344;14.518;2023-12-20T13:05:29;99597.06;;;7.85;100.00
13695;BME280;6919;52.344;14.518;2023-12-20T13:08:06;99581.69;;;7.87;100.00
13695;BME280;6919;52.344;14.518;2023-12-20T13:10:34;99587.19;;;7.86;100.00
13695;BME280;6919;52.344;14.518;2023-12-20T13:13:03;99583.19;;;7.90;100.00
13695;BME280;6919;52.344;14.518;2023-12-20T13:15:32;99586.41;;;8.01;100.00
13695;BME280;6919;52.344;14.518;2023-12-20T13:18:01;99579.22;;;7.94;100.00